createdAt,value
2019-04-10T17:59:01.009Z,9.17
2019-04-10T18:01:32.870Z,10.07
2019-04-10T18:04:05.585Z,8.90
2019-04-10T18:06:36.623Z,8.50
2019-04-10T18:09:09.926Z,9.10
2019-04-10T18:11:41.441Z,8.70
2019-04-10T18:14:13.202Z,7.97
2019-04-10T18:16:44.277Z,8.50
2019-04-10T18:19:15.490Z,8.37
2019-04-10T18:21:46.199Z,8.40
2019-04-10T18:24:16.790Z,9.87
2019-04-10T18:26:50.597Z,8.30
2019-04-10T18:29:21.138Z,8.87
2019-04-10T18:31:52.146Z,9.40
2019-04-10T18:34:22.797Z,8.50
2019-04-10T18:36:54.456Z,8.07
2019-04-10T18:39:26.141Z,6.87
2019-04-10T18:41:59.300Z,7.73
2019-04-10T18:44:29.141Z,8.00
2019-04-10T18:47:00.665Z,8.90
2019-04-10T18:49:31.664Z,7.07
2019-04-10T18:52:03.351Z,9.43
2019-04-10T18:54:34.065Z,7.90
2019-04-10T18:57:05.375Z,7.23
2019-04-10T18:59:42.819Z,7.53
2019-04-10T19:02:29.846Z,7.63
2019-04-10T19:05:14.072Z,7.70
2019-04-10T19:07:44.624Z,8.27
2019-04-10T19:10:15.413Z,8.00
2019-04-10T19:12:45.873Z,6.80
2019-04-10T19:15:16.973Z,7.13
2019-04-10T19:17:48.760Z,8.83
2019-04-10T19:20:19.361Z,8.10
2019-04-10T19:22:50.666Z,6.97
2019-04-10T19:25:21.343Z,7.53
2019-04-10T19:27:52.714Z,8.67
2019-04-10T19:30:35.244Z,7.60
2019-04-10T19:33:05.926Z,9.03
2019-04-10T19:35:37.263Z,8.80
2019-04-10T19:38:09.244Z,8.80
2019-04-10T19:40:40.388Z,8.67
2019-04-10T19:43:10.980Z,8.33
2019-04-10T19:45:41.869Z,8.87
2019-04-10T19:48:12.598Z,7.03
2019-04-10T19:50:43.725Z,8.70
2019-04-10T19:53:15.105Z,8.97
2019-04-10T19:55:46.262Z,10.43
2019-04-10T19:58:17.660Z,9.40
2019-04-10T20:00:49.023Z,9.20
2019-04-10T20:03:19.667Z,9.10
2019-04-10T20:05:51.232Z,8.68
2019-04-10T20:08:21.935Z,9.37
2019-04-10T20:10:52.423Z,7.80
2019-04-10T20:13:22.922Z,7.97
2019-04-10T20:15:53.529Z,8.37
2019-04-10T20:18:24.542Z,7.80
2019-04-10T20:20:55.448Z,7.20
2019-04-10T20:23:26.098Z,7.53
2019-04-10T20:25:56.880Z,8.97
2019-04-10T20:28:27.350Z,7.67
2019-04-10T20:30:58.350Z,8.10
2019-04-10T20:33:30.585Z,7.60
2019-04-10T20:36:01.601Z,8.07
2019-04-10T20:38:33.392Z,6.67
2019-04-10T20:41:04.623Z,7.80
2019-04-10T20:43:35.258Z,7.50
2019-04-10T20:46:06.662Z,7.80
2019-04-10T20:48:37.278Z,7.00
2019-04-10T20:51:08.845Z,8.63
2019-04-10T20:53:40.217Z,7.60
2019-04-10T20:56:10.870Z,8.00
2019-04-10T20:58:42.390Z,6.93
2019-04-10T21:01:13.070Z,7.73
2019-04-10T21:03:44.651Z,7.50
2019-04-10T21:06:15.590Z,8.17
2019-04-10T21:08:46.745Z,7.47
2019-04-10T21:11:17.246Z,8.40
2019-04-10T21:13:48.993Z,7.20
2019-04-10T21:16:19.804Z,7.93
2019-04-10T21:18:50.467Z,8.60
2019-04-10T21:21:22.192Z,8.37
2019-04-10T21:23:52.776Z,7.63
2019-04-10T21:26:24.000Z,7.30
2019-04-10T21:28:55.697Z,6.80
2019-04-10T21:31:44.808Z,7.77
2019-04-10T21:34:19.878Z,7.87
2019-04-10T21:36:51.204Z,8.30
2019-04-10T21:39:21.752Z,7.57
2019-04-10T21:41:52.220Z,7.97
2019-04-10T21:44:22.832Z,7.53
2019-04-10T21:46:53.490Z,7.57
2019-04-10T21:49:24.418Z,7.00
2019-04-10T21:51:55.819Z,7.57
2019-04-10T21:54:27.013Z,7.93
2019-04-10T21:56:57.805Z,8.40
2019-04-10T21:59:28.984Z,7.33
2019-04-10T22:01:59.925Z,7.90
2019-04-10T22:04:30.895Z,7.53
2019-04-10T22:07:20.306Z,8.17
2019-04-10T22:10:16.111Z,8.50
2019-04-10T22:12:49.200Z,8.10
2019-04-10T22:15:41.449Z,7.43
2019-04-10T22:18:12.857Z,8.00
2019-04-10T22:20:43.715Z,8.17
2019-04-10T22:23:14.198Z,7.90
2019-04-10T22:25:45.892Z,8.53
2019-04-10T22:28:17.037Z,9.63
2019-04-10T22:30:48.434Z,8.00
2019-04-10T22:33:20.166Z,7.77
2019-04-10T22:35:51.128Z,8.60
2019-04-10T22:38:21.635Z,9.63
2019-04-10T22:40:52.518Z,9.67
2019-04-10T22:43:24.242Z,8.43
2019-04-10T22:45:55.176Z,8.60
2019-04-10T22:48:25.585Z,9.47
2019-04-10T22:50:56.024Z,10.47
2019-04-10T22:53:26.434Z,9.67
2019-04-10T22:55:56.892Z,10.90
2019-04-10T22:58:27.320Z,8.77
2019-04-10T23:00:58.056Z,9.67
2019-04-10T23:03:28.445Z,9.57
2019-04-10T23:05:59.057Z,10.10
2019-04-10T23:08:29.571Z,10.37
2019-04-10T23:11:01.466Z,9.40
2019-04-10T23:13:32.089Z,10.97
2019-04-10T23:16:04.010Z,10.63
2019-04-10T23:18:34.596Z,9.77
2019-04-10T23:21:06.109Z,10.67
2019-04-10T23:23:36.715Z,10.40
2019-04-10T23:26:07.300Z,10.97
2019-04-10T23:28:37.988Z,10.93
2019-04-10T23:31:08.372Z,10.83
2019-04-10T23:33:39.902Z,11.17
2019-04-10T23:36:10.465Z,10.70
2019-04-10T23:38:41.795Z,10.90
2019-04-10T23:41:13.647Z,11.10
2019-04-10T23:43:44.173Z,11.03
2019-04-10T23:46:15.875Z,12.37
2019-04-10T23:48:46.884Z,11.13
2019-04-10T23:51:17.263Z,11.93
2019-04-10T23:53:48.830Z,9.93
2019-04-10T23:56:19.843Z,10.67
2019-04-10T23:58:50.758Z,9.30
